sensor_id;sensor_type;location;lat;lon;timestamp;P1;durP1;ratioP1;P2;durP2;ratioP2
27863;SDS011;15980;51.092;13.916;2022-08-05T00:03:03;3.85;;;2.78;;
27863;SDS011;15980;51.092;13.916;2022-08-05T00:08:07;3.50;;;3.10;;
27863;SDS011;15980;51.092;13.916;2022-08-05T00:13:10;3.88;;;2.90;;
27863;SDS011;15980;51.092;13.916;2022-08-05T00:18:13;4.03;;;3.00;;
27863;SDS011;15980;51.092;13.916;2022-08-05T00:23:18;3.42;;;2.65;;
27863;SDS011;15980;51.092;13.916;2022-08-05T00:28:21;5.63;;;3.00;;
27863;SDS011;15980;51.092;13.916;2022-08-05T00:33:24;3.92;;;3.15;;
27863;SDS011;15980;51.092;13.916;2022-08-05T00:38:28;3.35;;;2.50;;
27863;SDS011;15980;51.092;13.916;2022-08-05T00:43:32;3.78;;;2.97;;
27863;SDS011;15980;51.092;13.916;2022-08-05T00:48:35;4.72;;;2.88;;
27863;SDS011;15980;51.092;13.916;2022-08-05T00:53:40;3.88;;;2.92;;
27863;SDS011;15980;51.092;13.916;2022-08-05T00:58:43;6.25;;;2.58;;
27863;SDS011;15980;51.092;13.916;2022-08-05T01:03:46;4.50;;;2.80;;
27863;SDS011;15980;51.092;13.916;2022-08-05T01:08:50;3.20;;;2.90;;
27863;SDS011;15980;51.092;13.916;2022-08-05T01:14:00;3.28;;;2.17;;
27863;SDS011;15980;51.092;13.916;2022-08-05T01:19:10;2.95;;;2.30;;
27863;SDS011;15980;51.092;13.916;2022-08-05T01:24:30;3.83;;;2.60;;
27863;SDS011;15980;51.092;13.916;2022-08-05T01:29:51;3.38;;;2.88;;
27863;SDS011;15980;51.092;13.916;2022-08-05T01:34:58;3.85;;;2.70;;
27863;SDS011;15980;51.092;13.916;2022-08-05T01:40:04;4.75;;;2.90;;
27863;SDS011;15980;51.092;13.916;2022-08-05T01:45:11;4.05;;;2.85;;
27863;SDS011;15980;51.092;13.916;2022-08-05T01:50:24;3.50;;;2.80;;
27863;SDS011;15980;51.092;13.916;2022-08-05T01:55:30;3.42;;;2.83;;
27863;SDS011;15980;51.092;13.916;2022-08-05T02:00:37;3.53;;;2.53;;
27863;SDS011;15980;51.092;13.916;2022-08-05T02:05:43;3.25;;;2.72;;
27863;SDS011;15980;51.092;13.916;2022-08-05T02:10:48;3.85;;;2.55;;
27863;SDS011;15980;51.092;13.916;2022-08-05T02:16:03;2.90;;;2.60;;
27863;SDS011;15980;51.092;13.916;2022-08-05T02:21:11;3.10;;;2.70;;
27863;SDS011;15980;51.092;13.916;2022-08-05T02:26:18;3.03;;;2.42;;
27863;SDS011;15980;51.092;13.916;2022-08-05T02:31:27;7.80;;;2.90;;
27863;SDS011;15980;51.092;13.916;2022-08-05T02:36:33;3.60;;;2.60;;
27863;SDS011;15980;51.092;13.916;2022-08-05T02:41:38;3.50;;;2.80;;
27863;SDS011;15980;51.092;13.916;2022-08-05T02:46:45;3.08;;;2.50;;
27863;SDS011;15980;51.092;13.916;2022-08-05T02:51:49;3.00;;;2.65;;
27863;SDS011;15980;51.092;13.916;2022-08-05T02:56:53;4.10;;;2.50;;
27863;SDS011;15980;51.092;13.916;2022-08-05T03:01:58;4.30;;;2.63;;
27863;SDS011;15980;51.092;13.916;2022-08-05T03:07:01;4.95;;;2.60;;
27863;SDS011;15980;51.092;13.916;2022-08-05T03:12:06;5.18;;;2.75;;
27863;SDS011;15980;51.092;13.916;2022-08-05T03:17:11;3.17;;;2.67;;
27863;SDS011;15980;51.092;13.916;2022-08-05T03:22:14;2.83;;;2.50;;
27863;SDS011;15980;51.092;13.916;2022-08-05T03:27:17;3.65;;;2.80;;
27863;SDS011;15980;51.092;13.916;2022-08-05T03:32:21;4.50;;;2.95;;
27863;SDS011;15980;51.092;13.916;2022-08-05T03:37:24;4.63;;;2.78;;
27863;SDS011;15980;51.092;13.916;2022-08-05T03:42:28;3.30;;;2.50;;
27863;SDS011;15980;51.092;13.916;2022-08-05T03:47:32;5.53;;;2.83;;
27863;SDS011;15980;51.092;13.916;2022-08-05T03:52:37;3.65;;;2.83;;
27863;SDS011;15980;51.092;13.916;2022-08-05T03:57:47;4.50;;;2.55;;
27863;SDS011;15980;51.092;13.916;2022-08-05T04:02:56;3.08;;;2.55;;
27863;SDS011;15980;51.092;13.916;2022-08-05T04:08:04;3.83;;;3.20;;
27863;SDS011;15980;51.092;13.916;2022-08-05T04:13:10;3.60;;;2.97;;
27863;SDS011;15980;51.092;13.916;2022-08-05T04:18:15;5.70;;;3.05;;
27863;SDS011;15980;51.092;13.916;2022-08-05T04:23:18;5.50;;;3.92;;
27863;SDS011;15980;51.092;13.916;2022-08-05T04:28:21;3.42;;;2.80;;
27863;SDS011;15980;51.092;13.916;2022-08-05T04:33:26;3.42;;;2.88;;
27863;SDS011;15980;51.092;13.916;2022-08-05T04:38:29;3.30;;;2.72;;
27863;SDS011;15980;51.092;13.916;2022-08-05T04:43:32;3.88;;;3.25;;
27863;SDS011;15980;51.092;13.916;2022-08-05T04:48:36;5.20;;;3.17;;
27863;SDS011;15980;51.092;13.916;2022-08-05T04:53:39;4.25;;;2.90;;
27863;SDS011;15980;51.092;13.916;2022-08-05T04:58:42;3.83;;;2.65;;
27863;SDS011;15980;51.092;13.916;2022-08-05T05:03:47;8.45;;;3.40;;
27863;SDS011;15980;51.092;13.916;2022-08-05T05:08:50;3.95;;;3.03;;
27863;SDS011;15980;51.092;13.916;2022-08-05T05:13:53;6.85;;;3.15;;
27863;SDS011;15980;51.092;13.916;2022-08-05T05:18:57;3.83;;;3.00;;
27863;SDS011;15980;51.092;13.916;2022-08-05T05:24:16;3.15;;;2.80;;
27863;SDS011;15980;51.092;13.916;2022-08-05T05:29:21;3.95;;;2.75;;
27863;SDS011;15980;51.092;13.916;2022-08-05T05:34:26;3.20;;;2.67;;
27863;SDS011;15980;51.092;13.916;2022-08-05T05:39:29;5.03;;;2.58;;
27863;SDS011;15980;51.092;13.916;2022-08-05T05:44:32;7.43;;;2.72;;
27863;SDS011;15980;51.092;13.916;2022-08-05T05:49:36;3.45;;;2.50;;
27863;SDS011;15980;51.092;13.916;2022-08-05T05:54:39;3.83;;;2.80;;
27863;SDS011;15980;51.092;13.916;2022-08-05T05:59:42;4.40;;;2.90;;
27863;SDS011;15980;51.092;13.916;2022-08-05T06:04:47;5.15;;;3.17;;
27863;SDS011;15980;51.092;13.916;2022-08-05T06:09:50;4.68;;;2.90;;
27863;SDS011;15980;51.092;13.916;2022-08-05T06:14:54;3.30;;;2.75;;
27863;SDS011;15980;51.092;13.916;2022-08-05T06:19:59;3.25;;;2.83;;
27863;SDS011;15980;51.092;13.916;2022-08-05T06:25:02;4.80;;;2.95;;
27863;SDS011;15980;51.092;13.916;2022-08-05T06:30:09;3.63;;;2.95;;
27863;SDS011;15980;51.092;13.916;2022-08-05T06:35:17;7.07;;;3.22;;
27863;SDS011;15980;51.092;13.916;2022-08-05T06:40:21;5.60;;;3.22;;
27863;SDS011;15980;51.092;13.916;2022-08-05T06:45:24;5.32;;;3.20;;
27863;SDS011;15980;51.092;13.916;2022-08-05T06:50:30;6.22;;;3.33;;
27863;SDS011;15980;51.092;13.916;2022-08-05T06:55:33;7.80;;;3.20;;
27863;SDS011;15980;51.092;13.916;2022-08-05T07:00:36;6.03;;;3.20;;
27863;SDS011;15980;51.092;13.916;2022-08-05T07:05:41;6.25;;;3.00;;
27863;SDS011;15980;51.092;13.916;2022-08-05T07:10:44;4.18;;;2.78;;
27863;SDS011;15980;51.092;13.916;2022-08-05T07:15:46;7.28;;;3.05;;
27863;SDS011;15980;51.092;13.916;2022-08-05T07:21:08;5.10;;;3.30;;
27863;SDS011;15980;51.092;13.916;2022-08-05T07:26:11;13.43;;;3.75;;
27863;SDS011;15980;51.092;13.916;2022-08-05T07:31:15;11.98;;;3.10;;
27863;SDS011;15980;51.092;13.916;2022-08-05T07:36:19;5.57;;;3.42;;
27863;SDS011;15980;51.092;13.916;2022-08-05T07:41:23;5.38;;;2.80;;
27863;SDS011;15980;51.092;13.916;2022-08-05T07:46:27;4.45;;;3.17;;
27863;SDS011;15980;51.092;13.916;2022-08-05T07:51:34;8.00;;;2.70;;
27863;SDS011;15980;51.092;13.916;2022-08-05T07:56:38;7.00;;;3.65;;
27863;SDS011;15980;51.092;13.916;2022-08-05T08:01:41;11.00;;;3.70;;
27863;SDS011;15980;51.092;13.916;2022-08-05T08:06:45;6.90;;;4.07;;
27863;SDS011;15980;51.092;13.916;2022-08-05T08:11:48;14.88;;;4.32;;
27863;SDS011;15980;51.092;13.916;2022-08-05T08:16:51;8.75;;;4.53;;
27863;SDS011;15980;51.092;13.916;2022-08-05T08:21:56;6.78;;;3.90;;
27863;SDS011;15980;51.092;13.916;2022-08-05T08:26:59;6.38;;;4.40;;
27863;SDS011;15980;51.092;13.916;2022-08-05T08:32:03;7.75;;;4.63;;
27863;SDS011;15980;51.092;13.916;2022-08-05T08:37:07;6.97;;;4.68;;
27863;SDS011;15980;51.092;13.916;2022-08-05T08:42:10;5.35;;;4.32;;
27863;SDS011;15980;51.092;13.916;2022-08-05T08:47:13;7.53;;;5.05;;
27863;SDS011;15980;51.092;13.916;2022-08-05T08:52:21;6.05;;;4.15;;
27863;SDS011;15980;51.092;13.916;2022-08-05T08:57:26;8.68;;;4.28;;
27863;SDS011;15980;51.092;13.916;2022-08-05T09:02:29;4.60;;;3.60;;
27863;SDS011;15980;51.092;13.916;2022-08-05T09:07:35;8.15;;;4.25;;
27863;SDS011;15980;51.092;13.916;2022-08-05T09:12:38;8.50;;;4.00;;
27863;SDS011;15980;51.092;13.916;2022-08-05T09:17:41;6.75;;;4.30;;
27863;SDS011;15980;51.092;13.916;2022-08-05T09:23:08;13.80;;;4.63;;
27863;SDS011;15980;51.092;13.916;2022-08-05T09:28:14;7.03;;;4.65;;
27863;SDS011;15980;51.092;13.916;2022-08-05T09:33:18;5.72;;;4.15;;
27863;SDS011;15980;51.092;13.916;2022-08-05T09:38:23;5.68;;;4.00;;
27863;SDS011;15980;51.092;13.916;2022-08-05T09:43:27;5.32;;;4.00;;
27863;SDS011;15980;51.092;13.916;2022-08-05T09:48:32;11.30;;;3.70;;
27863;SDS011;15980;51.092;13.916;2022-08-05T09:53:47;4.57;;;3.53;;
27863;SDS011;15980;51.092;13.916;2022-08-05T09:59:00;11.52;;;4.10;;
27863;SDS011;15980;51.092;13.916;2022-08-05T10:04:05;8.40;;;3.90;;
27863;SDS011;15980;51.092;13.916;2022-08-05T10:09:13;6.78;;;3.55;;
27863;SDS011;15980;51.092;13.916;2022-08-05T10:14:21;8.07;;;4.00;;
27863;SDS011;15980;51.092;13.916;2022-08-05T10:19:24;8.13;;;3.88;;
27863;SDS011;15980;51.092;13.916;2022-08-05T10:24:29;8.50;;;4.10;;
27863;SDS011;15980;51.092;13.916;2022-08-05T10:29:34;7.47;;;4.25;;
27863;SDS011;15980;51.092;13.916;2022-08-05T10:34:37;7.38;;;4.32;;
27863;SDS011;15980;51.092;13.916;2022-08-05T10:39:43;11.27;;;4.97;;
27863;SDS011;15980;51.092;13.916;2022-08-05T10:44:48;6.47;;;4.45;;
27863;SDS011;15980;51.092;13.916;2022-08-05T10:49:59;7.70;;;4.50;;
27863;SDS011;15980;51.092;13.916;2022-08-05T10:55:05;9.05;;;4.00;;
27863;SDS011;15980;51.092;13.916;2022-08-05T11:00:12;8.07;;;4.28;;
27863;SDS011;15980;51.092;13.916;2022-08-05T11:05:20;4.78;;;4.28;;
27863;SDS011;15980;51.092;13.916;2022-08-05T11:10:27;5.97;;;4.60;;
27863;SDS011;15980;51.092;13.916;2022-08-05T11:15:31;7.28;;;4.07;;
27863;SDS011;15980;51.092;13.916;2022-08-05T11:20:40;7.30;;;4.43;;
27863;SDS011;15980;51.092;13.916;2022-08-05T11:25:47;8.27;;;4.70;;
27863;SDS011;15980;51.092;13.916;2022-08-05T11:36:38;13.38;;;5.18;;
27863;SDS011;15980;51.092;13.916;2022-08-05T11:41:53;6.10;;;4.35;;
27863;SDS011;15980;51.092;13.916;2022-08-05T11:46:59;10.10;;;4.70;;
27863;SDS011;15980;51.092;13.916;2022-08-05T11:52:02;7.15;;;4.30;;
27863;SDS011;15980;51.092;13.916;2022-08-05T11:57:08;7.93;;;3.85;;
27863;SDS011;15980;51.092;13.916;2022-08-05T12:02:11;5.75;;;4.22;;
27863;SDS011;15980;51.092;13.916;2022-08-05T12:07:17;11.40;;;3.70;;
27863;SDS011;15980;51.092;13.916;2022-08-05T12:12:22;4.10;;;3.20;;
27863;SDS011;15980;51.092;13.916;2022-08-05T12:17:26;7.97;;;3.70;;
27863;SDS011;15980;51.092;13.916;2022-08-05T12:22:30;5.60;;;3.50;;
27863;SDS011;15980;51.092;13.916;2022-08-05T12:27:35;6.65;;;3.30;;
27863;SDS011;15980;51.092;13.916;2022-08-05T12:32:43;3.35;;;2.88;;
27863;SDS011;15980;51.092;13.916;2022-08-05T12:37:51;4.28;;;3.42;;
27863;SDS011;15980;51.092;13.916;2022-08-05T12:42:55;4.82;;;3.33;;
27863;SDS011;15980;51.092;13.916;2022-08-05T12:47:59;4.07;;;2.92;;
27863;SDS011;15980;51.092;13.916;2022-08-05T12:53:15;6.40;;;3.42;;
27863;SDS011;15980;51.092;13.916;2022-08-05T12:58:23;4.82;;;2.83;;
27863;SDS011;15980;51.092;13.916;2022-08-05T13:03:26;6.40;;;3.28;;
27863;SDS011;15980;51.092;13.916;2022-08-05T13:08:29;3.47;;;2.70;;
27863;SDS011;15980;51.092;13.916;2022-08-05T13:13:34;5.40;;;3.85;;
27863;SDS011;15980;51.092;13.916;2022-08-05T13:18:49;3.85;;;3.00;;
27863;SDS011;15980;51.092;13.916;2022-08-05T13:23:52;4.72;;;3.45;;
27863;SDS011;15980;51.092;13.916;2022-08-05T13:28:57;8.10;;;3.50;;
27863;SDS011;15980;51.092;13.916;2022-08-05T13:34:00;6.18;;;2.97;;
27863;SDS011;15980;51.092;13.916;2022-08-05T13:39:04;3.80;;;2.95;;
27863;SDS011;15980;51.092;13.916;2022-08-05T13:44:10;2.67;;;2.40;;
27863;SDS011;15980;51.092;13.916;2022-08-05T13:49:13;6.95;;;2.50;;
27863;SDS011;15980;51.092;13.916;2022-08-05T13:54:16;6.38;;;2.92;;
27863;SDS011;15980;51.092;13.916;2022-08-05T13:59:23;3.97;;;2.70;;
27863;SDS011;15980;51.092;13.916;2022-08-05T14:04:26;6.03;;;2.80;;
27863;SDS011;15980;51.092;13.916;2022-08-05T14:09:48;3.33;;;2.50;;
27863;SDS011;15980;51.092;13.916;2022-08-05T14:14:53;7.65;;;2.92;;
27863;SDS011;15980;51.092;13.916;2022-08-05T14:19:55;7.63;;;3.08;;
27863;SDS011;15980;51.092;13.916;2022-08-05T14:25:01;3.83;;;2.22;;
27863;SDS011;15980;51.092;13.916;2022-08-05T14:30:06;3.00;;;2.22;;
27863;SDS011;15980;51.092;13.916;2022-08-05T14:35:11;2.80;;;2.08;;
27863;SDS011;15980;51.092;13.916;2022-08-05T14:40:14;2.92;;;2.10;;
27863;SDS011;15980;51.092;13.916;2022-08-05T14:45:18;9.30;;;2.15;;
27863;SDS011;15980;51.092;13.916;2022-08-05T14:50:23;7.72;;;2.22;;
27863;SDS011;15980;51.092;13.916;2022-08-05T14:55:26;4.38;;;2.33;;
27863;SDS011;15980;51.092;13.916;2022-08-05T15:00:31;5.63;;;2.15;;
27863;SDS011;15980;51.092;13.916;2022-08-05T15:05:34;2.83;;;1.98;;
27863;SDS011;15980;51.092;13.916;2022-08-05T15:10:37;5.03;;;2.35;;
27863;SDS011;15980;51.092;13.916;2022-08-05T15:15:43;4.97;;;2.15;;
27863;SDS011;15980;51.092;13.916;2022-08-05T15:20:46;5.75;;;2.28;;
27863;SDS011;15980;51.092;13.916;2022-08-05T15:25:49;2.33;;;2.13;;
27863;SDS011;15980;51.092;13.916;2022-08-05T15:30:55;3.63;;;2.38;;
27863;SDS011;15980;51.092;13.916;2022-08-05T15:35:58;4.40;;;2.35;;
27863;SDS011;15980;51.092;13.916;2022-08-05T15:41:02;5.13;;;2.22;;
27863;SDS011;15980;51.092;13.916;2022-08-05T15:46:07;2.38;;;2.17;;
27863;SDS011;15980;51.092;13.916;2022-08-05T15:51:10;4.20;;;2.53;;
27863;SDS011;15980;51.092;13.916;2022-08-05T15:56:13;5.03;;;2.47;;
27863;SDS011;15980;51.092;13.916;2022-08-05T16:01:17;5.85;;;2.33;;
27863;SDS011;15980;51.092;13.916;2022-08-05T16:06:20;2.83;;;2.22;;
27863;SDS011;15980;51.092;13.916;2022-08-05T16:11:24;2.55;;;2.10;;
27863;SDS011;15980;51.092;13.916;2022-08-05T16:16:28;4.28;;;2.30;;
27863;SDS011;15980;51.092;13.916;2022-08-05T16:21:32;9.57;;;2.78;;
27863;SDS011;15980;51.092;13.916;2022-08-05T16:26:47;6.13;;;2.80;;
27863;SDS011;15980;51.092;13.916;2022-08-05T16:31:53;4.07;;;2.03;;
27863;SDS011;15980;51.092;13.916;2022-08-05T16:36:57;6.05;;;2.60;;
27863;SDS011;15980;51.092;13.916;2022-08-05T16:42:00;4.80;;;3.20;;
27863;SDS011;15980;51.092;13.916;2022-08-05T16:47:05;4.40;;;2.47;;
27863;SDS011;15980;51.092;13.916;2022-08-05T16:52:08;7.97;;;3.00;;
27863;SDS011;15980;51.092;13.916;2022-08-05T16:57:12;4.78;;;2.50;;
27863;SDS011;15980;51.092;13.916;2022-08-05T17:02:16;5.38;;;2.72;;
27863;SDS011;15980;51.092;13.916;2022-08-05T17:07:19;4.47;;;2.47;;
27863;SDS011;15980;51.092;13.916;2022-08-05T17:12:22;3.75;;;2.70;;
27863;SDS011;15980;51.092;13.916;2022-08-05T17:17:26;4.85;;;2.72;;
27863;SDS011;15980;51.092;13.916;2022-08-05T17:22:33;2.58;;;2.38;;
27863;SDS011;15980;51.092;13.916;2022-08-05T17:27:37;5.80;;;2.58;;
27863;SDS011;15980;51.092;13.916;2022-08-05T17:32:41;3.38;;;2.50;;
27863;SDS011;15980;51.092;13.916;2022-08-05T17:37:44;7.10;;;2.67;;
27863;SDS011;15980;51.092;13.916;2022-08-05T17:42:48;6.93;;;2.65;;
27863;SDS011;15980;51.092;13.916;2022-08-05T17:47:53;8.70;;;2.25;;
27863;SDS011;15980;51.092;13.916;2022-08-05T17:52:57;7.72;;;2.13;;
27863;SDS011;15980;51.092;13.916;2022-08-05T17:58:00;4.47;;;2.00;;
27863;SDS011;15980;51.092;13.916;2022-08-05T18:03:05;5.13;;;1.90;;
27863;SDS011;15980;51.092;13.916;2022-08-05T18:08:07;34.33;;;3.60;;
27863;SDS011;15980;51.092;13.916;2022-08-05T18:13:11;19.73;;;2.38;;
27863;SDS011;15980;51.092;13.916;2022-08-05T18:18:16;18.65;;;2.80;;
27863;SDS011;15980;51.092;13.916;2022-08-05T18:23:19;5.95;;;2.55;;
27863;SDS011;15980;51.092;13.916;2022-08-05T18:28:22;6.45;;;2.30;;
27863;SDS011;15980;51.092;13.916;2022-08-05T18:33:27;9.90;;;2.90;;
27863;SDS011;15980;51.092;13.916;2022-08-05T18:38:29;7.47;;;2.80;;
27863;SDS011;15980;51.092;13.916;2022-08-05T18:43:34;15.93;;;3.58;;
27863;SDS011;15980;51.092;13.916;2022-08-05T18:48:38;5.93;;;3.78;;
27863;SDS011;15980;51.092;13.916;2022-08-05T18:53:42;9.80;;;3.53;;
27863;SDS011;15980;51.092;13.916;2022-08-05T18:58:45;9.20;;;3.60;;
27863;SDS011;15980;51.092;13.916;2022-08-05T19:03:49;6.25;;;3.63;;
27863;SDS011;15980;51.092;13.916;2022-08-05T19:08:52;8.10;;;3.60;;
27863;SDS011;15980;51.092;13.916;2022-08-05T19:13:55;6.38;;;3.88;;
27863;SDS011;15980;51.092;13.916;2022-08-05T19:19:00;10.45;;;4.75;;
27863;SDS011;15980;51.092;13.916;2022-08-05T19:24:03;7.60;;;5.43;;
27863;SDS011;15980;51.092;13.916;2022-08-05T19:29:09;7.20;;;5.30;;
27863;SDS011;15980;51.092;13.916;2022-08-05T19:34:14;10.90;;;5.38;;
27863;SDS011;15980;51.092;13.916;2022-08-05T19:39:17;9.25;;;6.38;;
27863;SDS011;15980;51.092;13.916;2022-08-05T19:44:20;8.63;;;6.45;;
27863;SDS011;15980;51.092;13.916;2022-08-05T19:49:25;10.52;;;6.72;;
27863;SDS011;15980;51.092;13.916;2022-08-05T19:54:28;8.25;;;5.88;;
27863;SDS011;15980;51.092;13.916;2022-08-05T19:59:32;11.35;;;6.45;;
27863;SDS011;15980;51.092;13.916;2022-08-05T20:04:36;8.45;;;5.97;;
27863;SDS011;15980;51.092;13.916;2022-08-05T20:09:39;8.18;;;5.50;;
27863;SDS011;15980;51.092;13.916;2022-08-05T20:14:42;10.10;;;6.03;;
27863;SDS011;15980;51.092;13.916;2022-08-05T20:19:51;10.05;;;5.75;;
27863;SDS011;15980;51.092;13.916;2022-08-05T20:24:54;8.77;;;5.13;;
27863;SDS011;15980;51.092;13.916;2022-08-05T20:29:57;8.90;;;5.20;;
27863;SDS011;15980;51.092;13.916;2022-08-05T20:35:02;6.80;;;4.53;;
27863;SDS011;15980;51.092;13.916;2022-08-05T20:40:06;9.90;;;4.63;;
27863;SDS011;15980;51.092;13.916;2022-08-05T20:45:11;5.57;;;3.75;;
27863;SDS011;15980;51.092;13.916;2022-08-05T20:50:15;4.65;;;3.60;;
27863;SDS011;15980;51.092;13.916;2022-08-05T20:55:18;7.05;;;3.35;;
27863;SDS011;15980;51.092;13.916;2022-08-05T21:00:21;4.45;;;3.20;;
27863;SDS011;15980;51.092;13.916;2022-08-05T21:05:26;6.60;;;2.35;;
27863;SDS011;15980;51.092;13.916;2022-08-05T21:10:29;3.70;;;1.90;;
27863;SDS011;15980;51.092;13.916;2022-08-05T21:15:32;3.25;;;1.98;;
27863;SDS011;15980;51.092;13.916;2022-08-05T21:20:36;5.63;;;1.80;;
27863;SDS011;15980;51.092;13.916;2022-08-05T21:25:40;10.82;;;2.10;;
27863;SDS011;15980;51.092;13.916;2022-08-05T21:30:44;2.88;;;1.40;;
27863;SDS011;15980;51.092;13.916;2022-08-05T21:35:49;4.50;;;1.85;;
27863;SDS011;15980;51.092;13.916;2022-08-05T21:40:52;5.63;;;1.63;;
27863;SDS011;15980;51.092;13.916;2022-08-05T21:45:55;3.67;;;1.63;;
27863;SDS011;15980;51.092;13.916;2022-08-05T21:51:00;4.63;;;1.77;;
27863;SDS011;15980;51.092;13.916;2022-08-05T21:56:03;3.40;;;1.33;;
27863;SDS011;15980;51.092;13.916;2022-08-05T22:01:06;3.35;;;1.40;;
27863;SDS011;15980;51.092;13.916;2022-08-05T22:06:11;3.80;;;1.20;;
27863;SDS011;15980;51.092;13.916;2022-08-05T22:11:14;2.03;;;1.20;;
27863;SDS011;15980;51.092;13.916;2022-08-05T22:16:18;4.00;;;1.17;;
27863;SDS011;15980;51.092;13.916;2022-08-05T22:26:43;3.67;;;1.20;;
27863;SDS011;15980;51.092;13.916;2022-08-05T22:32:04;3.13;;;1.52;;
27863;SDS011;15980;51.092;13.916;2022-08-05T22:37:08;2.50;;;1.40;;
27863;SDS011;15980;51.092;13.916;2022-08-05T22:42:11;1.92;;;1.38;;
27863;SDS011;15980;51.092;13.916;2022-08-05T22:47:14;5.90;;;1.73;;
27863;SDS011;15980;51.092;13.916;2022-08-05T22:52:19;6.10;;;1.80;;
27863;SDS011;15980;51.092;13.916;2022-08-05T22:57:22;3.67;;;1.67;;
27863;SDS011;15980;51.092;13.916;2022-08-05T23:02:25;3.75;;;1.58;;
27863;SDS011;15980;51.092;13.916;2022-08-05T23:07:29;3.85;;;1.73;;
27863;SDS011;15980;51.092;13.916;2022-08-05T23:12:32;3.47;;;2.08;;
27863;SDS011;15980;51.092;13.916;2022-08-05T23:17:35;4.47;;;2.10;;
27863;SDS011;15980;51.092;13.916;2022-08-05T23:22:40;5.20;;;2.17;;
27863;SDS011;15980;51.092;13.916;2022-08-05T23:27:43;4.97;;;2.65;;
27863;SDS011;15980;51.092;13.916;2022-08-05T23:32:47;3.75;;;2.45;;
27863;SDS011;15980;51.092;13.916;2022-08-05T23:37:51;6.50;;;3.00;;
27863;SDS011;15980;51.092;13.916;2022-08-05T23:42:54;5.32;;;3.00;;
27863;SDS011;15980;51.092;13.916;2022-08-05T23:47:57;5.38;;;3.65;;
27863;SDS011;15980;51.092;13.916;2022-08-05T23:53:01;6.38;;;3.42;;
27863;SDS011;15980;51.092;13.916;2022-08-05T23:58:04;11.82;;;3.80;;
